createdAt,value
2022-10-29T00:01:13.428Z,99646.19
2022-10-29T00:03:42.949Z,99641.34
2022-10-29T00:06:13.333Z,99635.61
2022-10-29T00:08:43.139Z,99638.77
2022-10-29T00:11:19.584Z,99638.17
2022-10-29T00:13:49.447Z,99636.26
2022-10-29T00:16:20.279Z,99635.42
2022-10-29T00:18:48.352Z,99636.30
2022-10-29T00:21:19.420Z,99639.80
2022-10-29T00:23:48.293Z,99641.39
2022-10-29T00:26:19.681Z,99644.31
2022-10-29T00:28:48.854Z,99648.11
2022-10-29T00:31:19.071Z,99645.85
2022-10-29T00:33:47.114Z,99643.95
2022-10-29T00:36:18.315Z,99642.77
2022-10-29T00:38:46.045Z,99648.86
2022-10-29T00:41:18.124Z,99658.61
2022-10-29T00:43:50.214Z,99664.83
2022-10-29T00:46:30.810Z,99665.48
2022-10-29T00:49:00.142Z,99659.04
2022-10-29T00:51:30.373Z,99654.68
2022-10-29T00:54:08.151Z,99650.31
2022-10-29T00:56:40.701Z,99653.25
2022-10-29T00:59:10.304Z,99654.85
2022-10-29T01:01:39.284Z,99652.60
2022-10-29T01:04:09.897Z,99644.36
2022-10-29T01:06:38.784Z,99636.36
2022-10-29T01:09:06.512Z,99640.41
2022-10-29T01:12:02.016Z,99645.39
2022-10-29T01:14:47.355Z,99644.70
2022-10-29T01:17:24.492Z,99650.08
2022-10-29T01:20:25.558Z,99651.46
2022-10-29T01:23:35.933Z,99657.71
2022-10-29T01:26:48.138Z,99660.32
2022-10-29T01:29:39.135Z,99659.14
2022-10-29T01:32:19.387Z,99654.94
2022-10-29T01:35:00.504Z,99659.20
2022-10-29T01:37:49.635Z,99664.44
2022-10-29T01:40:50.093Z,99673.08
2022-10-29T01:43:30.264Z,99670.02
2022-10-29T01:46:11.645Z,99670.39
2022-10-29T01:48:45.915Z,99674.25
2022-10-29T01:51:34.222Z,99671.72
2022-10-29T01:54:08.633Z,99669.92
2022-10-29T01:56:36.907Z,99669.90
2022-10-29T01:59:18.201Z,99664.94
2022-10-29T02:02:03.004Z,99659.11
2022-10-29T02:04:54.299Z,99652.52
2022-10-29T02:08:01.252Z,99648.13
2022-10-29T02:10:40.779Z,99647.05
2022-10-29T02:13:11.335Z,99650.84
2022-10-29T02:15:48.312Z,99654.27
2022-10-29T02:18:18.043Z,99658.26
2022-10-29T02:20:46.793Z,99655.30
2022-10-29T02:23:16.614Z,99649.34
2022-10-29T02:25:44.805Z,99641.23
2022-10-29T02:28:13.858Z,99640.44
2022-10-29T02:30:41.813Z,99633.05
2022-10-29T02:33:09.632Z,99632.16
2022-10-29T02:35:37.748Z,99628.98
2022-10-29T02:38:05.438Z,99625.82
2022-10-29T02:40:33.131Z,99619.77
2022-10-29T02:43:00.911Z,99617.20
2022-10-29T02:45:28.671Z,99618.59
2022-10-29T02:47:56.582Z,99621.27
2022-10-29T02:50:25.184Z,99621.13
2022-10-29T02:52:52.980Z,99619.05
2022-10-29T02:55:20.741Z,99622.99
2022-10-29T02:57:48.522Z,99621.45
2022-10-29T03:00:16.414Z,99627.69
2022-10-29T03:02:44.423Z,99631.80
2022-10-29T03:05:12.207Z,99630.05
2022-10-29T03:07:40.000Z,99630.95
2022-10-29T03:10:08.251Z,99628.85
2022-10-29T03:12:36.099Z,99623.93
2022-10-29T03:15:06.070Z,99630.31
2022-10-29T03:17:33.765Z,99627.09
2022-10-29T03:20:01.654Z,99625.98
2022-10-29T03:22:29.417Z,99628.97
2022-10-29T03:24:57.138Z,99627.95
2022-10-29T03:27:24.846Z,99626.31
2022-10-29T03:29:52.972Z,99628.66
2022-10-29T03:32:20.722Z,99635.60
2022-10-29T03:34:49.166Z,99638.59
2022-10-29T03:37:16.875Z,99645.48
2022-10-29T03:39:44.961Z,99643.63
2022-10-29T03:42:14.061Z,99642.38
2022-10-29T03:44:41.884Z,99644.21
2022-10-29T03:47:09.610Z,99641.94
2022-10-29T03:49:37.397Z,99641.61
2022-10-29T03:52:05.647Z,99643.03
2022-10-29T03:54:33.438Z,99641.85
2022-10-29T03:57:01.200Z,99643.62
2022-10-29T03:59:29.322Z,99644.17
2022-10-29T04:01:57.580Z,99645.56
2022-10-29T04:04:26.253Z,99657.38
2022-10-29T04:06:54.154Z,99659.29
2022-10-29T04:09:22.490Z,99653.61
2022-10-29T04:11:50.198Z,99658.02
2022-10-29T04:14:17.874Z,99665.04
2022-10-29T04:16:45.621Z,99667.64
2022-10-29T04:19:13.592Z,99670.56
2022-10-29T04:30:05.785Z,99683.27
2022-10-29T04:32:33.788Z,99684.90
2022-10-29T04:35:01.547Z,99684.75
2022-10-29T04:37:29.981Z,99684.05
2022-10-29T04:39:57.744Z,99687.08
2022-10-29T04:42:25.479Z,99686.75
2022-10-29T04:44:53.590Z,99691.59
2022-10-29T04:47:21.372Z,99692.34
2022-10-29T04:49:49.065Z,99700.25
2022-10-29T04:52:16.831Z,99704.92
2022-10-29T04:54:44.989Z,99707.83
2022-10-29T04:57:12.728Z,99709.86
2022-10-29T04:59:40.909Z,99709.48
2022-10-29T05:02:09.933Z,99715.02
2022-10-29T05:04:37.747Z,99718.36
2022-10-29T05:07:05.862Z,99721.80
2022-10-29T05:09:33.587Z,99719.78
2022-10-29T05:12:07.196Z,99718.86
2022-10-29T05:14:35.269Z,99721.44
2022-10-29T05:17:03.554Z,99720.66
2022-10-29T05:19:31.482Z,99723.52
2022-10-29T05:21:59.499Z,99726.39
2022-10-29T05:24:27.454Z,99728.57
2022-10-29T05:26:55.197Z,99727.89
2022-10-29T05:29:23.343Z,99733.84
2022-10-29T05:31:54.660Z,99732.60
2022-10-29T05:34:23.992Z,99735.08
2022-10-29T05:36:52.606Z,99737.33
2022-10-29T05:39:20.841Z,99735.61
2022-10-29T05:41:49.808Z,99732.17
2022-10-29T05:44:17.941Z,99736.73
2022-10-29T05:46:49.532Z,99733.84
2022-10-29T05:49:18.546Z,99736.21
2022-10-29T05:51:46.592Z,99738.48
2022-10-29T05:54:14.359Z,99740.85
2022-10-29T05:56:42.167Z,99740.05
2022-10-29T05:59:09.926Z,99741.14
2022-10-29T06:01:37.846Z,99747.43
2022-10-29T06:04:05.759Z,99752.41
2022-10-29T06:06:34.246Z,99750.13
2022-10-29T06:09:03.017Z,99748.07
2022-10-29T06:11:31.253Z,99752.01
2022-10-29T06:13:58.996Z,99745.23
2022-10-29T06:16:26.771Z,99749.97
2022-10-29T06:18:54.595Z,99757.59
2022-10-29T06:21:22.441Z,99761.05
2022-10-29T06:23:54.183Z,99765.05
2022-10-29T06:26:22.910Z,99767.54
2022-10-29T06:28:50.920Z,99766.83
2022-10-29T06:31:18.658Z,99765.84
2022-10-29T06:33:46.540Z,99769.77
2022-10-29T06:36:14.510Z,99771.21
2022-10-29T06:38:42.511Z,99775.65
2022-10-29T06:41:10.476Z,99777.33
2022-10-29T06:43:38.644Z,99785.63
2022-10-29T06:46:07.127Z,99788.89
2022-10-29T06:48:34.915Z,99787.86
2022-10-29T06:51:04.193Z,99789.52
2022-10-29T06:53:31.982Z,99791.02
2022-10-29T06:56:00.109Z,99789.30
2022-10-29T06:58:27.899Z,99789.24
2022-10-29T07:00:55.768Z,99789.19
2022-10-29T07:03:23.656Z,99788.59
2022-10-29T07:06:00.161Z,99788.94
2022-10-29T07:08:29.149Z,99789.14
2022-10-29T07:10:57.107Z,99786.76
2022-10-29T07:13:25.288Z,99783.98
2022-10-29T07:15:53.118Z,99785.40
2022-10-29T07:18:20.998Z,99785.67
2022-10-29T07:20:48.748Z,99781.36
2022-10-29T07:23:16.641Z,99774.89
2022-10-29T07:25:44.392Z,99773.96
2022-10-29T07:28:20.903Z,99774.13
2022-10-29T07:30:50.612Z,99767.38
2022-10-29T07:33:18.988Z,99767.60
2022-10-29T07:35:47.457Z,99775.62
2022-10-29T07:38:15.228Z,99769.14
2022-10-29T07:40:50.205Z,99764.25
2022-10-29T07:43:20.856Z,99765.05
2022-10-29T07:45:50.873Z,99775.68
2022-10-29T07:48:20.494Z,99777.80
2022-10-29T07:50:50.401Z,99777.40
2022-10-29T07:53:22.629Z,99782.16
2022-10-29T07:56:04.290Z,99784.23
2022-10-29T07:58:37.104Z,99784.14
2022-10-29T08:01:07.263Z,99783.70
2022-10-29T08:03:35.157Z,99785.52
2022-10-29T08:06:03.498Z,99786.00
2022-10-29T08:08:31.279Z,99785.80
2022-10-29T08:11:01.810Z,99780.60
2022-10-29T08:13:31.523Z,99788.67
2022-10-29T08:16:00.100Z,99786.80
2022-10-29T08:18:29.134Z,99781.27
2022-10-29T08:20:57.558Z,99781.38
2022-10-29T08:23:25.313Z,99785.31
2022-10-29T08:25:52.991Z,99788.27
2022-10-29T08:28:23.995Z,99792.42
2022-10-29T08:30:53.270Z,99790.24
2022-10-29T08:33:21.802Z,99797.95
2022-10-29T08:35:49.985Z,99793.92
2022-10-29T08:38:17.727Z,99789.66
2022-10-29T08:41:01.874Z,99795.42
2022-10-29T08:43:36.538Z,99796.71
2022-10-29T08:46:04.776Z,99794.50
2022-10-29T08:48:44.597Z,99792.04
2022-10-29T08:51:30.950Z,99792.75
2022-10-29T08:56:54.088Z,99789.48
2022-10-29T08:59:26.198Z,99790.14
2022-10-29T09:01:54.282Z,99788.92
2022-10-29T09:04:25.695Z,99787.41
2022-10-29T09:07:18.805Z,99787.16
2022-10-29T09:10:43.438Z,99784.31
2022-10-29T09:13:33.074Z,99784.48
2022-10-29T09:16:06.119Z,99781.08
2022-10-29T09:19:06.374Z,99781.92
2022-10-29T09:21:40.176Z,99780.98
2022-10-29T09:24:43.846Z,99788.89
2022-10-29T09:27:20.337Z,99795.75
2022-10-29T09:30:18.933Z,99793.16
2022-10-29T09:33:18.752Z,99791.01
2022-10-29T09:35:59.726Z,99789.23
2022-10-29T09:38:34.693Z,99780.42
2022-10-29T09:41:04.160Z,99780.84
2022-10-29T09:43:39.202Z,99781.27
2022-10-29T09:46:34.858Z,99778.83
2022-10-29T09:49:31.482Z,99777.51
2022-10-29T09:52:08.002Z,99764.52
2022-10-29T09:54:37.666Z,99764.13
2022-10-29T09:57:11.233Z,99766.77
2022-10-29T09:59:43.846Z,99767.56
2022-10-29T10:02:38.963Z,99774.27
2022-10-29T10:05:23.967Z,99770.46
2022-10-29T10:08:07.395Z,99764.40
2022-10-29T10:10:49.902Z,99763.20
2022-10-29T10:13:21.789Z,99762.48
2022-10-29T10:15:57.968Z,99760.84
2022-10-29T10:18:52.137Z,99757.77
2022-10-29T10:21:32.189Z,99761.86
2022-10-29T10:24:01.617Z,99759.12
2022-10-29T10:26:32.606Z,99754.62
2022-10-29T10:29:16.088Z,99754.64
2022-10-29T10:31:59.144Z,99756.13
2022-10-29T10:34:39.533Z,99754.71
2022-10-29T10:37:21.042Z,99758.61
2022-10-29T10:39:55.855Z,99759.47
2022-10-29T10:42:26.706Z,99756.02
2022-10-29T10:45:24.157Z,99756.88
2022-10-29T10:47:59.224Z,99751.36
2022-10-29T10:50:36.120Z,99746.05
2022-10-29T10:53:17.639Z,99743.58
2022-10-29T10:56:03.911Z,99740.09
2022-10-29T10:58:40.766Z,99745.41
2022-10-29T11:01:44.189Z,99743.95
2022-10-29T11:04:21.813Z,99739.08
2022-10-29T11:06:52.165Z,99730.75
2022-10-29T11:09:40.122Z,99720.70
2022-10-29T11:12:30.818Z,99714.94
2022-10-29T11:15:19.973Z,99717.53
2022-10-29T11:18:00.848Z,99721.88
2022-10-29T11:20:36.427Z,99713.42
2022-10-29T11:23:29.416Z,99710.45
2022-10-29T11:26:08.262Z,99711.30
2022-10-29T11:28:44.615Z,99710.36
2022-10-29T11:31:32.272Z,99704.35
2022-10-29T11:34:14.223Z,99704.52
2022-10-29T11:37:20.919Z,99705.94
2022-10-29T11:40:02.048Z,99699.61
2022-10-29T11:42:31.172Z,99692.67
2022-10-29T11:45:00.117Z,99689.91
2022-10-29T11:47:49.336Z,99692.37
2022-10-29T11:50:51.144Z,99694.57
2022-10-29T11:53:46.269Z,99689.81
2022-10-29T11:56:18.698Z,99684.11
2022-10-29T11:59:05.796Z,99683.82
2022-10-29T12:01:45.995Z,99682.75
2022-10-29T12:04:32.760Z,99680.91
2022-10-29T12:07:38.241Z,99686.20
2022-10-29T12:10:27.958Z,99685.59
2022-10-29T12:13:27.441Z,99685.42
2022-10-29T12:16:34.036Z,99683.50
2022-10-29T12:19:17.500Z,99680.64
2022-10-29T12:22:02.229Z,99678.69
2022-10-29T12:24:46.244Z,99678.23
2022-10-29T12:27:29.438Z,99675.61
2022-10-29T12:30:31.475Z,99673.48
2022-10-29T12:33:27.430Z,99671.80
2022-10-29T12:36:08.485Z,99673.16
2022-10-29T12:38:48.867Z,99674.15
2022-10-29T12:41:41.488Z,99669.77
2022-10-29T12:44:48.234Z,99670.36
2022-10-29T12:47:26.351Z,99663.10
2022-10-29T12:50:24.428Z,99660.84
2022-10-29T12:53:10.111Z,99661.00
2022-10-29T12:55:40.138Z,99661.06
2022-10-29T12:58:45.896Z,99663.89
2022-10-29T13:01:38.434Z,99657.21
2022-10-29T13:04:34.367Z,99657.73
2022-10-29T13:10:24.785Z,99650.73
2022-10-29T13:12:59.473Z,99646.88
2022-10-29T13:15:36.016Z,99642.15
2022-10-29T13:18:41.733Z,99638.63
2022-10-29T13:21:11.235Z,99630.45
2022-10-29T13:23:41.384Z,99631.84
2022-10-29T13:26:10.133Z,99632.38
2022-10-29T13:28:37.806Z,99629.55
2022-10-29T13:31:08.884Z,99630.33
2022-10-29T13:33:40.034Z,99631.73
2022-10-29T13:36:20.059Z,99626.62
2022-10-29T13:39:04.839Z,99621.45
2022-10-29T13:41:49.456Z,99622.46
2022-10-29T13:44:23.899Z,99616.17
2022-10-29T13:47:29.506Z,99621.08
2022-10-29T13:49:58.468Z,99626.98
2022-10-29T13:52:28.185Z,99623.57
2022-10-29T13:55:09.705Z,99618.36
2022-10-29T13:57:50.919Z,99615.90
2022-10-29T14:00:21.373Z,99609.77
2022-10-29T14:03:15.124Z,99611.95
2022-10-29T14:05:53.014Z,99611.05
2022-10-29T14:08:50.781Z,99609.10
2022-10-29T14:11:26.335Z,99604.29
2022-10-29T14:14:01.102Z,99602.95
2022-10-29T14:16:34.032Z,99602.15
2022-10-29T14:19:19.379Z,99600.41
2022-10-29T14:21:48.404Z,99598.10
2022-10-29T14:24:17.117Z,99598.95
2022-10-29T14:26:45.607Z,99600.02
2022-10-29T14:29:21.165Z,99602.52
2022-10-29T14:32:08.520Z,99607.80
2022-10-29T14:34:36.354Z,99607.20
2022-10-29T14:37:28.765Z,99605.76
2022-10-29T14:40:03.134Z,99601.95
2022-10-29T14:42:34.810Z,99595.61
2022-10-29T14:45:07.498Z,99591.05
2022-10-29T14:47:37.564Z,99597.19
2022-10-29T14:50:15.634Z,99600.27
2022-10-29T14:52:51.124Z,99605.56
2022-10-29T14:55:27.336Z,99605.18
2022-10-29T14:58:07.585Z,99606.60
2022-10-29T15:00:37.271Z,99604.15
2022-10-29T15:03:07.814Z,99602.16
2022-10-29T15:05:37.748Z,99602.34
2022-10-29T15:08:11.885Z,99603.77
2022-10-29T15:10:54.512Z,99601.88
2022-10-29T15:13:34.529Z,99601.80
2022-10-29T15:16:07.453Z,99605.83
2022-10-29T15:18:37.734Z,99608.23
2022-10-29T15:21:06.382Z,99614.38
2022-10-29T15:23:41.287Z,99621.67
2022-10-29T15:26:21.024Z,99629.02
2022-10-29T15:28:53.614Z,99633.56
2022-10-29T15:31:42.843Z,99636.58
2022-10-29T15:34:28.594Z,99636.48
2022-10-29T15:36:58.162Z,99632.55
2022-10-29T15:39:29.527Z,99636.14
2022-10-29T15:42:01.078Z,99631.40
2022-10-29T15:44:38.229Z,99631.00
2022-10-29T15:47:22.444Z,99630.21
2022-10-29T15:49:51.172Z,99631.57
2022-10-29T15:52:21.834Z,99632.55
2022-10-29T15:54:49.648Z,99632.77
2022-10-29T15:57:19.117Z,99636.91
2022-10-29T15:59:46.840Z,99636.04
2022-10-29T16:02:17.918Z,99637.98
2022-10-29T16:04:53.366Z,99632.58
2022-10-29T16:07:22.619Z,99628.63
2022-10-29T16:09:53.768Z,99632.13
2022-10-29T16:12:21.934Z,99631.71
2022-10-29T16:14:52.774Z,99632.73
2022-10-29T16:17:21.667Z,99630.09
2022-10-29T16:19:50.626Z,99626.88
2022-10-29T16:22:29.778Z,99627.42
2022-10-29T16:24:58.704Z,99633.21
2022-10-29T16:27:26.753Z,99630.39
2022-10-29T16:29:54.746Z,99625.09
2022-10-29T16:32:24.106Z,99625.52
2022-10-29T16:34:53.254Z,99627.13
2022-10-29T16:37:21.794Z,99628.89
2022-10-29T16:39:50.252Z,99625.42
2022-10-29T16:42:30.019Z,99628.07
2022-10-29T16:44:57.992Z,99629.55
2022-10-29T16:47:25.980Z,99622.08
2022-10-29T16:49:54.344Z,99619.40
2022-10-29T16:52:24.153Z,99615.45
2022-10-29T16:54:54.735Z,99618.56
2022-10-29T16:57:23.883Z,99622.76
2022-10-29T16:59:52.138Z,99624.85
2022-10-29T17:02:19.980Z,99627.20
2022-10-29T17:04:49.444Z,99631.78
2022-10-29T17:07:18.819Z,99626.46
2022-10-29T17:09:46.569Z,99622.63
2022-10-29T17:12:15.153Z,99623.25
2022-10-29T17:14:42.900Z,99622.52
2022-10-29T17:17:10.931Z,99621.30
2022-10-29T17:19:38.728Z,99620.23
2022-10-29T17:22:10.677Z,99618.19
2022-10-29T17:24:38.604Z,99619.98
2022-10-29T17:27:06.356Z,99620.99
2022-10-29T17:29:36.455Z,99621.33
2022-10-29T17:32:06.983Z,99622.02
2022-10-29T17:34:37.143Z,99622.21
2022-10-29T17:37:04.907Z,99622.52
2022-10-29T17:39:32.775Z,99619.37
2022-10-29T17:42:02.601Z,99619.84
2022-10-29T17:44:40.567Z,99616.53
2022-10-29T17:47:13.177Z,99620.10
2022-10-29T17:49:41.430Z,99620.77
2022-10-29T17:52:09.655Z,99614.41
2022-10-29T17:54:37.975Z,99615.31
2022-10-29T17:57:05.793Z,99611.98
2022-10-29T17:59:34.759Z,99615.42
2022-10-29T18:02:03.170Z,99618.23
2022-10-29T18:04:31.082Z,99615.65
2022-10-29T18:06:59.160Z,99617.29
2022-10-29T18:09:28.631Z,99619.75
2022-10-29T18:11:56.762Z,99616.71
2022-10-29T18:14:26.398Z,99617.08
2022-10-29T18:16:54.278Z,99617.73
2022-10-29T18:19:22.378Z,99620.50
2022-10-29T18:21:50.596Z,99616.16
2022-10-29T18:24:19.562Z,99610.87
2022-10-29T18:26:51.388Z,99613.69
2022-10-29T18:29:19.138Z,99612.27
2022-10-29T18:31:47.039Z,99608.17
2022-10-29T18:34:18.238Z,99609.59
2022-10-29T18:36:47.644Z,99607.95
2022-10-29T18:39:15.852Z,99608.92
2022-10-29T18:41:43.973Z,99604.80
2022-10-29T18:44:11.771Z,99601.23
2022-10-29T18:46:40.127Z,99604.04
2022-10-29T18:49:12.074Z,99605.80
2022-10-29T18:51:40.357Z,99604.77
2022-10-29T18:54:11.417Z,99603.23
2022-10-29T18:56:39.411Z,99603.73
2022-10-29T18:59:09.524Z,99606.66
2022-10-29T19:01:39.920Z,99603.23
2022-10-29T19:04:12.993Z,99600.15
2022-10-29T19:06:40.804Z,99602.02
2022-10-29T19:09:11.827Z,99608.75
2022-10-29T19:11:41.067Z,99610.32
2022-10-29T19:14:13.180Z,99613.83
2022-10-29T19:16:41.523Z,99615.98
2022-10-29T19:19:12.782Z,99614.64
2022-10-29T19:21:42.653Z,99611.55
2022-10-29T19:24:16.175Z,99610.39
2022-10-29T19:26:44.210Z,99610.63
2022-10-29T19:29:14.294Z,99607.31
2022-10-29T19:31:45.022Z,99605.77
2022-10-29T19:34:12.831Z,99606.25
2022-10-29T19:36:40.734Z,99601.83
2022-10-29T19:39:08.972Z,99599.08
2022-10-29T19:41:37.122Z,99601.86
2022-10-29T19:44:05.167Z,99601.85
2022-10-29T19:46:33.356Z,99604.27
2022-10-29T19:49:01.423Z,99602.29
2022-10-29T19:51:29.723Z,99605.73
2022-10-29T19:53:58.799Z,99603.86
2022-10-29T19:56:26.932Z,99597.52
2022-10-29T19:58:55.100Z,99601.42
2022-10-29T20:01:23.668Z,99605.49
2022-10-29T20:03:52.773Z,99604.57
2022-10-29T20:06:21.523Z,99603.30
2022-10-29T20:08:52.452Z,99600.23
2022-10-29T20:11:21.788Z,99599.65
2022-10-29T20:13:49.542Z,99597.45
2022-10-29T20:16:20.337Z,99595.10
2022-10-29T20:18:49.841Z,99592.79
2022-10-29T20:21:18.377Z,99589.39
2022-10-29T20:23:46.410Z,99586.36
2022-10-29T20:26:14.652Z,99588.34
2022-10-29T20:28:43.468Z,99583.06
2022-10-29T20:31:29.743Z,99574.79
2022-10-29T20:33:59.946Z,99580.31
2022-10-29T20:36:30.753Z,99580.67
2022-10-29T20:38:58.926Z,99579.67
2022-10-29T20:41:26.800Z,99585.23
2022-10-29T20:44:00.141Z,99584.59
2022-10-29T20:46:29.964Z,99583.55
2022-10-29T20:48:57.967Z,99584.13
2022-10-29T20:51:26.503Z,99579.06
2022-10-29T20:54:05.784Z,99578.10
2022-10-29T20:56:35.693Z,99581.20
2022-10-29T20:59:03.881Z,99576.02
2022-10-29T21:01:35.874Z,99571.73
2022-10-29T21:04:04.710Z,99570.09
2022-10-29T21:06:32.487Z,99569.13
2022-10-29T21:09:01.584Z,99572.20
2022-10-29T21:11:29.373Z,99567.80
2022-10-29T21:13:57.148Z,99567.88
2022-10-29T21:16:27.640Z,99565.60
2022-10-29T21:18:59.627Z,99563.47
2022-10-29T21:21:29.370Z,99562.63
2022-10-29T21:23:59.048Z,99561.74
2022-10-29T21:26:29.242Z,99559.83
2022-10-29T21:28:57.540Z,99558.44
2022-10-29T21:31:25.304Z,99560.55
2022-10-29T21:33:56.197Z,99563.59
2022-10-29T21:36:24.283Z,99561.31
2022-10-29T21:38:53.832Z,99560.73
2022-10-29T21:41:22.374Z,99561.38
2022-10-29T21:43:50.122Z,99564.20
2022-10-29T21:46:18.504Z,99561.83
2022-10-29T21:48:46.209Z,99560.41
2022-10-29T21:51:16.257Z,99564.68
2022-10-29T21:53:44.026Z,99567.16
2022-10-29T21:56:13.601Z,99571.20
2022-10-29T21:58:42.495Z,99569.83
2022-10-29T22:01:16.548Z,99567.02
2022-10-29T22:03:46.253Z,99562.27
2022-10-29T22:06:17.547Z,99560.84
2022-10-29T22:08:46.419Z,99561.76
2022-10-29T22:11:15.275Z,99558.38
2022-10-29T22:13:43.087Z,99558.02
2022-10-29T22:16:11.569Z,99560.73
2022-10-29T22:18:39.930Z,99562.90
2022-10-29T22:21:17.178Z,99564.01
2022-10-29T22:23:50.124Z,99562.70
2022-10-29T22:26:21.363Z,99566.04
2022-10-29T22:28:51.100Z,99559.23
2022-10-29T22:31:21.393Z,99553.84
2022-10-29T22:33:50.285Z,99550.58
2022-10-29T22:36:20.765Z,99551.12
2022-10-29T22:39:00.251Z,99554.28
2022-10-29T22:41:29.422Z,99551.40
2022-10-29T22:43:59.197Z,99550.07
2022-10-29T22:46:28.718Z,99551.02
2022-10-29T22:48:57.904Z,99553.01
2022-10-29T22:51:29.319Z,99549.38
2022-10-29T22:53:58.148Z,99551.54
2022-10-29T22:56:32.200Z,99552.65
2022-10-29T22:59:00.885Z,99556.21
2022-10-29T23:01:31.506Z,99556.20
2022-10-29T23:04:00.132Z,99556.93
2022-10-29T23:06:30.076Z,99553.58
2022-10-29T23:09:01.890Z,99550.55
2022-10-29T23:11:32.269Z,99548.79
2022-10-29T23:14:01.847Z,99552.66
2022-10-29T23:16:33.943Z,99553.90
2022-10-29T23:19:04.135Z,99554.66
2022-10-29T23:21:32.728Z,99557.31
2022-10-29T23:24:00.909Z,99553.97
2022-10-29T23:26:29.408Z,99554.33
2022-10-29T23:28:57.560Z,99556.46
2022-10-29T23:31:27.415Z,99555.91
2022-10-29T23:33:56.946Z,99559.80
2022-10-29T23:36:27.465Z,99560.89
2022-10-29T23:39:00.699Z,99558.98
2022-10-29T23:41:30.593Z,99558.64
2022-10-29T23:43:59.012Z,99554.89
2022-10-29T23:46:26.807Z,99555.09
2022-10-29T23:48:54.618Z,99553.89
2022-10-29T23:51:22.898Z,99557.30
2022-10-29T23:53:54.691Z,99556.13
2022-10-29T23:56:25.690Z,99556.20
2022-10-29T23:58:53.637Z,99556.80
